sensor_id;sensor_type;location;lat;lon;timestamp;temperature;humidity
18281;DHT22;9266;51.132;17.062;2024-01-10T00:01:46;-10.50;1.00
18281;DHT22;9266;51.132;17.062;2024-01-10T00:04:13;-10.60;1.00
18281;DHT22;9266;51.132;17.062;2024-01-10T00:06:42;-10.60;1.00
18281;DHT22;9266;51.132;17.062;2024-01-10T00:09:09;-10.60;1.00
18281;DHT22;9266;51.132;17.062;2024-01-10T00:11:36;-10.70;1.00
18281;DHT22;9266;51.132;17.062;2024-01-10T00:14:05;-10.70;1.00
18281;DHT22;9266;51.132;17.062;2024-01-10T00:16:32;-10.70;1.00
18281;DHT22;9266;51.132;17.062;2024-01-10T00:18:59;-10.60;1.00
18281;DHT22;9266;51.132;17.062;2024-01-10T00:21:26;-10.50;1.00
18281;DHT22;9266;51.132;17.062;2024-01-10T00:23:53;-10.50;1.00
18281;DHT22;9266;51.132;17.062;2024-01-10T00:26:20;-10.50;1.00
18281;DHT22;9266;51.132;17.062;2024-01-10T00:28:47;-10.50;1.00
18281;DHT22;9266;51.132;17.062;2024-01-10T00:31:17;-10.50;1.00
18281;DHT22;9266;51.132;17.062;2024-01-10T00:33:44;-10.50;1.00
18281;DHT22;9266;51.132;17.062;2024-01-10T00:36:11;-10.40;1.00
18281;DHT22;9266;51.132;17.062;2024-01-10T00:38:37;-10.40;1.00
18281;DHT22;9266;51.132;17.062;2024-01-10T00:41:04;-10.50;1.00
18281;DHT22;9266;51.132;17.062;2024-01-10T00:43:31;-10.50;1.00
18281;DHT22;9266;51.132;17.062;2024-01-10T00:45:58;-10.50;1.00
18281;DHT22;9266;51.132;17.062;2024-01-10T00:48:27;-10.40;1.00
18281;DHT22;9266;51.132;17.062;2024-01-10T00:50:54;-10.50;1.00
18281;DHT22;9266;51.132;17.062;2024-01-10T00:53:20;-10.50;1.00
18281;DHT22;9266;51.132;17.062;2024-01-10T00:55:48;-10.60;1.00
18281;DHT22;9266;51.132;17.062;2024-01-10T00:58:15;-9.90;1.00
18281;DHT22;9266;51.132;17.062;2024-01-10T01:00:42;-10.60;1.00
18281;DHT22;9266;51.132;17.062;2024-01-10T01:03:08;-10.70;1.00
18281;DHT22;9266;51.132;17.062;2024-01-10T01:05:37;-10.70;1.00
18281;DHT22;9266;51.132;17.062;2024-01-10T01:08:04;-10.70;1.00
18281;DHT22;9266;51.132;17.062;2024-01-10T01:10:31;-10.70;1.00
18281;DHT22;9266;51.132;17.062;2024-01-10T01:12:58;-10.70;1.00
18281;DHT22;9266;51.132;17.062;2024-01-10T01:15:25;-10.80;1.00
18281;DHT22;9266;51.132;17.062;2024-01-10T01:17:52;-10.90;1.00
18281;DHT22;9266;51.132;17.062;2024-01-10T01:20:19;-10.90;1.00
18281;DHT22;9266;51.132;17.062;2024-01-10T01:22:47;-10.90;1.00
18281;DHT22;9266;51.132;17.062;2024-01-10T01:25:14;-10.80;1.00
18281;DHT22;9266;51.132;17.062;2024-01-10T01:27:41;-10.80;1.00
18281;DHT22;9266;51.132;17.062;2024-01-10T01:30:09;-10.70;1.00
18281;DHT22;9266;51.132;17.062;2024-01-10T01:32:37;-11.90;1.00
18281;DHT22;9266;51.132;17.062;2024-01-10T01:35:04;-10.80;1.00
18281;DHT22;9266;51.132;17.062;2024-01-10T01:37:31;-10.70;1.00
18281;DHT22;9266;51.132;17.062;2024-01-10T01:40:00;-10.70;1.00
18281;DHT22;9266;51.132;17.062;2024-01-10T01:42:27;-10.80;1.00
18281;DHT22;9266;51.132;17.062;2024-01-10T01:44:54;-10.80;1.00
18281;DHT22;9266;51.132;17.062;2024-01-10T01:47:21;-10.80;1.00
18281;DHT22;9266;51.132;17.062;2024-01-10T01:49:48;-10.70;1.00
18281;DHT22;9266;51.132;17.062;2024-01-10T01:52:15;-10.80;1.00
18281;DHT22;9266;51.132;17.062;2024-01-10T01:54:42;-10.70;1.00
18281;DHT22;9266;51.132;17.062;2024-01-10T01:57:10;-10.70;1.00
18281;DHT22;9266;51.132;17.062;2024-01-10T01:59:37;-10.70;1.00
18281;DHT22;9266;51.132;17.062;2024-01-10T02:02:04;-10.80;1.00
18281;DHT22;9266;51.132;17.062;2024-01-10T02:04:32;-10.80;1.00
18281;DHT22;9266;51.132;17.062;2024-01-10T02:06:59;-10.90;1.00
18281;DHT22;9266;51.132;17.062;2024-01-10T02:09:26;-10.80;1.00
18281;DHT22;9266;51.132;17.062;2024-01-10T02:11:53;-10.80;1.00
18281;DHT22;9266;51.132;17.062;2024-01-10T02:14:21;-10.80;1.00
18281;DHT22;9266;51.132;17.062;2024-01-10T02:16:49;-10.80;1.00
18281;DHT22;9266;51.132;17.062;2024-01-10T02:19:20;-10.90;1.00
18281;DHT22;9266;51.132;17.062;2024-01-10T02:21:47;-10.90;1.00
18281;DHT22;9266;51.132;17.062;2024-01-10T02:24:14;-10.80;1.90
18281;DHT22;9266;51.132;17.062;2024-01-10T02:26:43;-10.70;1.00
18281;DHT22;9266;51.132;17.062;2024-01-10T02:29:10;-10.80;1.00
18281;DHT22;9266;51.132;17.062;2024-01-10T02:31:36;-10.80;1.00
18281;DHT22;9266;51.132;17.062;2024-01-10T02:34:03;-10.80;1.00
18281;DHT22;9266;51.132;17.062;2024-01-10T02:36:30;-10.80;1.00
18281;DHT22;9266;51.132;17.062;2024-01-10T02:38:57;-10.80;1.00
18281;DHT22;9266;51.132;17.062;2024-01-10T02:41:25;-10.90;1.00
18281;DHT22;9266;51.132;17.062;2024-01-10T02:43:54;-10.90;1.00
18281;DHT22;9266;51.132;17.062;2024-01-10T02:46:24;-10.90;1.00
18281;DHT22;9266;51.132;17.062;2024-01-10T02:48:53;-11.00;1.00
18281;DHT22;9266;51.132;17.062;2024-01-10T02:51:20;-10.90;1.00
18281;DHT22;9266;51.132;17.062;2024-01-10T02:53:47;-10.80;1.00
18281;DHT22;9266;51.132;17.062;2024-01-10T02:56:14;-11.00;1.00
18281;DHT22;9266;51.132;17.062;2024-01-10T02:58:41;-11.00;1.00
18281;DHT22;9266;51.132;17.062;2024-01-10T03:01:09;-10.90;1.00
18281;DHT22;9266;51.132;17.062;2024-01-10T03:03:36;-10.90;1.00
18281;DHT22;9266;51.132;17.062;2024-01-10T03:06:03;-11.00;1.00
18281;DHT22;9266;51.132;17.062;2024-01-10T03:08:30;-11.00;1.00
18281;DHT22;9266;51.132;17.062;2024-01-10T03:10:57;-11.00;1.00
18281;DHT22;9266;51.132;17.062;2024-01-10T03:13:24;-11.00;1.00
18281;DHT22;9266;51.132;17.062;2024-01-10T03:15:50;-11.10;1.00
18281;DHT22;9266;51.132;17.062;2024-01-10T03:18:19;-11.00;1.00
18281;DHT22;9266;51.132;17.062;2024-01-10T03:20:46;-11.10;1.00
18281;DHT22;9266;51.132;17.062;2024-01-10T03:23:12;-11.10;1.00
18281;DHT22;9266;51.132;17.062;2024-01-10T03:25:40;-11.10;1.00
18281;DHT22;9266;51.132;17.062;2024-01-10T03:28:06;-10.20;1.00
18281;DHT22;9266;51.132;17.062;2024-01-10T03:30:34;-11.10;1.00
18281;DHT22;9266;51.132;17.062;2024-01-10T03:33:01;-11.20;1.00
18281;DHT22;9266;51.132;17.062;2024-01-10T03:35:30;-11.20;1.00
18281;DHT22;9266;51.132;17.062;2024-01-10T03:37:57;-11.20;1.00
18281;DHT22;9266;51.132;17.062;2024-01-10T03:40:24;-11.20;1.00
18281;DHT22;9266;51.132;17.062;2024-01-10T03:42:51;-11.20;1.00
18281;DHT22;9266;51.132;17.062;2024-01-10T03:45:18;-11.20;1.00
18281;DHT22;9266;51.132;17.062;2024-01-10T03:47:48;-11.20;1.00
18281;DHT22;9266;51.132;17.062;2024-01-10T03:50:17;-11.20;1.00
18281;DHT22;9266;51.132;17.062;2024-01-10T03:52:46;-11.20;1.00
18281;DHT22;9266;51.132;17.062;2024-01-10T03:55:13;-11.20;1.00
18281;DHT22;9266;51.132;17.062;2024-01-10T03:57:41;-11.20;1.00
18281;DHT22;9266;51.132;17.062;2024-01-10T04:00:09;-11.20;1.00
18281;DHT22;9266;51.132;17.062;2024-01-10T04:02:37;-11.30;1.00
18281;DHT22;9266;51.132;17.062;2024-01-10T04:05:07;-11.20;1.00
18281;DHT22;9266;51.132;17.062;2024-01-10T04:07:35;-11.20;1.00
18281;DHT22;9266;51.132;17.062;2024-01-10T04:10:05;-11.30;1.00
18281;DHT22;9266;51.132;17.062;2024-01-10T04:12:35;-11.40;1.00
18281;DHT22;9266;51.132;17.062;2024-01-10T04:15:03;-11.30;1.00
18281;DHT22;9266;51.132;17.062;2024-01-10T04:17:30;-11.30;1.00
18281;DHT22;9266;51.132;17.062;2024-01-10T04:19:58;-11.40;1.00
18281;DHT22;9266;51.132;17.062;2024-01-10T04:22:25;-11.30;1.00
18281;DHT22;9266;51.132;17.062;2024-01-10T04:24:52;-11.30;1.00
18281;DHT22;9266;51.132;17.062;2024-01-10T04:27:20;-11.40;1.00
18281;DHT22;9266;51.132;17.062;2024-01-10T04:29:47;-11.40;1.00
18281;DHT22;9266;51.132;17.062;2024-01-10T04:32:14;-11.40;1.00
18281;DHT22;9266;51.132;17.062;2024-01-10T04:34:41;-11.40;1.00
18281;DHT22;9266;51.132;17.062;2024-01-10T04:37:08;-11.40;1.00
18281;DHT22;9266;51.132;17.062;2024-01-10T04:39:35;-11.50;1.00
18281;DHT22;9266;51.132;17.062;2024-01-10T04:42:03;-11.50;1.00
18281;DHT22;9266;51.132;17.062;2024-01-10T04:44:32;-11.50;1.00
18281;DHT22;9266;51.132;17.062;2024-01-10T04:46:59;-11.50;1.00
18281;DHT22;9266;51.132;17.062;2024-01-10T04:49:26;-11.50;1.00
18281;DHT22;9266;51.132;17.062;2024-01-10T04:51:53;-11.50;1.00
18281;DHT22;9266;51.132;17.062;2024-01-10T04:54:20;-11.50;1.00
18281;DHT22;9266;51.132;17.062;2024-01-10T04:56:47;-11.50;1.00
18281;DHT22;9266;51.132;17.062;2024-01-10T04:59:14;-11.40;1.00
18281;DHT22;9266;51.132;17.062;2024-01-10T05:01:42;-11.40;1.00
18281;DHT22;9266;51.132;17.062;2024-01-10T05:04:09;-11.40;1.00
18281;DHT22;9266;51.132;17.062;2024-01-10T05:06:36;-11.50;1.00
18281;DHT22;9266;51.132;17.062;2024-01-10T05:09:03;-11.50;1.00
18281;DHT22;9266;51.132;17.062;2024-01-10T05:11:30;-11.50;1.00
18281;DHT22;9266;51.132;17.062;2024-01-10T05:13:57;-11.50;1.00
18281;DHT22;9266;51.132;17.062;2024-01-10T05:16:24;-11.60;1.00
18281;DHT22;9266;51.132;17.062;2024-01-10T05:18:52;-11.50;1.00
18281;DHT22;9266;51.132;17.062;2024-01-10T05:21:19;-11.50;1.00
18281;DHT22;9266;51.132;17.062;2024-01-10T05:23:46;-11.70;1.00
18281;DHT22;9266;51.132;17.062;2024-01-10T05:26:14;-11.80;1.00
18281;DHT22;9266;51.132;17.062;2024-01-10T05:28:41;-11.80;1.00
18281;DHT22;9266;51.132;17.062;2024-01-10T05:31:08;-11.70;1.00
18281;DHT22;9266;51.132;17.062;2024-01-10T05:33:35;-11.70;1.00
18281;DHT22;9266;51.132;17.062;2024-01-10T05:36:04;-11.60;1.00
18281;DHT22;9266;51.132;17.062;2024-01-10T05:38:31;-11.60;1.00
18281;DHT22;9266;51.132;17.062;2024-01-10T05:40:58;-11.60;1.00
18281;DHT22;9266;51.132;17.062;2024-01-10T05:43:25;-11.60;1.00
18281;DHT22;9266;51.132;17.062;2024-01-10T05:45:52;-11.60;1.00
18281;DHT22;9266;51.132;17.062;2024-01-10T05:48:19;-11.60;1.00
18281;DHT22;9266;51.132;17.062;2024-01-10T05:50:45;-11.60;1.00
18281;DHT22;9266;51.132;17.062;2024-01-10T05:53:14;-11.70;1.00
18281;DHT22;9266;51.132;17.062;2024-01-10T05:55:42;-11.60;1.00
18281;DHT22;9266;51.132;17.062;2024-01-10T05:58:10;-11.70;1.00
18281;DHT22;9266;51.132;17.062;2024-01-10T06:00:37;-11.60;1.00
18281;DHT22;9266;51.132;17.062;2024-01-10T06:03:04;-11.60;1.00
18281;DHT22;9266;51.132;17.062;2024-01-10T06:05:31;-11.60;1.00
18281;DHT22;9266;51.132;17.062;2024-01-10T06:07:58;-11.70;1.00
18281;DHT22;9266;51.132;17.062;2024-01-10T06:10:26;-11.60;1.00
18281;DHT22;9266;51.132;17.062;2024-01-10T06:12:54;-11.70;1.00
18281;DHT22;9266;51.132;17.062;2024-01-10T06:15:21;-11.60;1.00
18281;DHT22;9266;51.132;17.062;2024-01-10T06:17:48;-11.70;1.00
18281;DHT22;9266;51.132;17.062;2024-01-10T06:20:16;-11.70;1.00
18281;DHT22;9266;51.132;17.062;2024-01-10T06:22:43;-11.60;1.00
18281;DHT22;9266;51.132;17.062;2024-01-10T06:25:12;-11.60;1.00
18281;DHT22;9266;51.132;17.062;2024-01-10T06:27:40;-11.70;1.00
18281;DHT22;9266;51.132;17.062;2024-01-10T06:30:08;-11.70;1.00
18281;DHT22;9266;51.132;17.062;2024-01-10T06:32:35;-11.70;1.00
18281;DHT22;9266;51.132;17.062;2024-01-10T06:35:02;-11.70;1.00
18281;DHT22;9266;51.132;17.062;2024-01-10T06:37:30;-11.70;1.00
18281;DHT22;9266;51.132;17.062;2024-01-10T06:39:57;-11.70;1.00
18281;DHT22;9266;51.132;17.062;2024-01-10T06:42:24;-11.70;1.00
18281;DHT22;9266;51.132;17.062;2024-01-10T06:44:53;-11.70;1.00
18281;DHT22;9266;51.132;17.062;2024-01-10T06:47:20;-11.60;1.00
18281;DHT22;9266;51.132;17.062;2024-01-10T06:49:47;-11.70;1.00
18281;DHT22;9266;51.132;17.062;2024-01-10T06:52:14;-11.70;1.00
18281;DHT22;9266;51.132;17.062;2024-01-10T06:54:42;-11.70;1.00
18281;DHT22;9266;51.132;17.062;2024-01-10T06:57:09;-11.80;1.00
18281;DHT22;9266;51.132;17.062;2024-01-10T06:59:36;-11.80;1.00
18281;DHT22;9266;51.132;17.062;2024-01-10T07:02:04;-11.80;1.00
18281;DHT22;9266;51.132;17.062;2024-01-10T07:04:32;-11.80;1.00
18281;DHT22;9266;51.132;17.062;2024-01-10T07:06:59;-11.90;1.00
18281;DHT22;9266;51.132;17.062;2024-01-10T07:09:26;-12.00;1.00
18281;DHT22;9266;51.132;17.062;2024-01-10T07:11:53;-11.90;1.00
18281;DHT22;9266;51.132;17.062;2024-01-10T07:14:20;-11.90;1.00
18281;DHT22;9266;51.132;17.062;2024-01-10T07:16:47;-11.90;99.90
18281;DHT22;9266;51.132;17.062;2024-01-10T07:19:15;-11.90;1.00
18281;DHT22;9266;51.132;17.062;2024-01-10T07:21:42;-11.80;1.00
18281;DHT22;9266;51.132;17.062;2024-01-10T07:24:09;-11.70;1.00
18281;DHT22;9266;51.132;17.062;2024-01-10T07:26:37;-11.80;99.90
18281;DHT22;9266;51.132;17.062;2024-01-10T07:29:04;-11.70;99.90
18281;DHT22;9266;51.132;17.062;2024-01-10T07:31:34;-11.60;99.90
18281;DHT22;9266;51.132;17.062;2024-01-10T07:34:00;-11.60;99.90
18281;DHT22;9266;51.132;17.062;2024-01-10T07:36:31;-11.50;99.90
18281;DHT22;9266;51.132;17.062;2024-01-10T07:38:59;-11.50;99.90
18281;DHT22;9266;51.132;17.062;2024-01-10T07:41:26;-11.40;99.90
18281;DHT22;9266;51.132;17.062;2024-01-10T07:43:53;-11.40;99.90
18281;DHT22;9266;51.132;17.062;2024-01-10T07:46:20;-11.30;99.90
18281;DHT22;9266;51.132;17.062;2024-01-10T07:48:48;-11.30;99.90
18281;DHT22;9266;51.132;17.062;2024-01-10T07:51:15;-11.20;99.90
18281;DHT22;9266;51.132;17.062;2024-01-10T07:53:43;-11.20;99.90
18281;DHT22;9266;51.132;17.062;2024-01-10T07:56:10;-11.10;99.90
18281;DHT22;9266;51.132;17.062;2024-01-10T07:58:38;-11.10;99.90
18281;DHT22;9266;51.132;17.062;2024-01-10T08:01:05;-11.10;99.90
18281;DHT22;9266;51.132;17.062;2024-01-10T08:03:32;-11.00;99.90
18281;DHT22;9266;51.132;17.062;2024-01-10T08:06:00;-11.00;99.90
18281;DHT22;9266;51.132;17.062;2024-01-10T08:08:26;-11.00;99.90
18281;DHT22;9266;51.132;17.062;2024-01-10T08:10:56;-10.90;99.90
18281;DHT22;9266;51.132;17.062;2024-01-10T08:13:23;-11.00;99.90
18281;DHT22;9266;51.132;17.062;2024-01-10T08:15:51;-10.80;99.90
18281;DHT22;9266;51.132;17.062;2024-01-10T08:18:17;-11.00;99.90
18281;DHT22;9266;51.132;17.062;2024-01-10T08:20:44;-10.80;99.90
18281;DHT22;9266;51.132;17.062;2024-01-10T08:23:11;-10.70;99.90
18281;DHT22;9266;51.132;17.062;2024-01-10T08:25:39;-10.80;99.90
18281;DHT22;9266;51.132;17.062;2024-01-10T08:28:07;-10.70;99.90
18281;DHT22;9266;51.132;17.062;2024-01-10T08:30:35;-10.70;99.90
18281;DHT22;9266;51.132;17.062;2024-01-10T08:33:03;-10.60;99.90
18281;DHT22;9266;51.132;17.062;2024-01-10T08:35:31;-10.70;99.90
18281;DHT22;9266;51.132;17.062;2024-01-10T08:37:58;-10.60;99.90
18281;DHT22;9266;51.132;17.062;2024-01-10T08:40:25;-10.60;99.90
18281;DHT22;9266;51.132;17.062;2024-01-10T08:42:52;-10.50;99.90
18281;DHT22;9266;51.132;17.062;2024-01-10T08:45:20;-10.60;99.90
18281;DHT22;9266;51.132;17.062;2024-01-10T08:47:47;-10.50;99.90
18281;DHT22;9266;51.132;17.062;2024-01-10T08:50:14;-10.40;99.90
18281;DHT22;9266;51.132;17.062;2024-01-10T08:52:41;-10.40;99.90
18281;DHT22;9266;51.132;17.062;2024-01-10T08:55:08;-10.20;99.90
18281;DHT22;9266;51.132;17.062;2024-01-10T08:57:35;-10.20;99.90
18281;DHT22;9266;51.132;17.062;2024-01-10T09:00:03;-10.10;99.90
18281;DHT22;9266;51.132;17.062;2024-01-10T09:02:33;-9.90;99.90
18281;DHT22;9266;51.132;17.062;2024-01-10T09:05:02;-9.70;99.90
18281;DHT22;9266;51.132;17.062;2024-01-10T09:07:29;-9.80;99.90
18281;DHT22;9266;51.132;17.062;2024-01-10T09:09:57;-9.70;99.90
18281;DHT22;9266;51.132;17.062;2024-01-10T09:12:24;-9.50;99.90
18281;DHT22;9266;51.132;17.062;2024-01-10T09:14:51;-9.40;99.90
18281;DHT22;9266;51.132;17.062;2024-01-10T09:17:18;-9.40;99.90
18281;DHT22;9266;51.132;17.062;2024-01-10T09:19:46;-9.30;99.60
18281;DHT22;9266;51.132;17.062;2024-01-10T09:22:13;-9.20;99.90
18281;DHT22;9266;51.132;17.062;2024-01-10T09:24:40;-9.20;66.90
18281;DHT22;9266;51.132;17.062;2024-01-10T09:27:07;-9.10;78.90
18281;DHT22;9266;51.132;17.062;2024-01-10T09:29:34;-8.90;90.60
18281;DHT22;9266;51.132;17.062;2024-01-10T09:32:02;-8.90;77.70
18281;DHT22;9266;51.132;17.062;2024-01-10T09:34:29;-8.70;68.70
18281;DHT22;9266;51.132;17.062;2024-01-10T09:36:59;-8.60;89.50
18281;DHT22;9266;51.132;17.062;2024-01-10T09:39:27;-8.50;47.60
18281;DHT22;9266;51.132;17.062;2024-01-10T09:41:54;-8.40;36.00
18281;DHT22;9266;51.132;17.062;2024-01-10T09:44:21;-8.40;18.30
18281;DHT22;9266;51.132;17.062;2024-01-10T09:46:51;-8.30;38.30
18281;DHT22;9266;51.132;17.062;2024-01-10T09:49:19;-8.20;16.20
18281;DHT22;9266;51.132;17.062;2024-01-10T09:51:48;-8.30;1.00
18281;DHT22;9266;51.132;17.062;2024-01-10T09:54:18;-8.30;1.00
18281;DHT22;9266;51.132;17.062;2024-01-10T09:56:45;-8.40;1.00
18281;DHT22;9266;51.132;17.062;2024-01-10T09:59:14;-8.40;5.20
18281;DHT22;9266;51.132;17.062;2024-01-10T10:01:41;-8.20;7.30
18281;DHT22;9266;51.132;17.062;2024-01-10T10:04:11;-8.00;9.30
18281;DHT22;9266;51.132;17.062;2024-01-10T10:06:38;-8.00;1.00
18281;DHT22;9266;51.132;17.062;2024-01-10T10:09:07;-7.90;1.00
18281;DHT22;9266;51.132;17.062;2024-01-10T10:11:35;-7.80;1.00
18281;DHT22;9266;51.132;17.062;2024-01-10T10:14:15;-7.80;1.00
18281;DHT22;9266;51.132;17.062;2024-01-10T10:16:43;-7.80;1.00
18281;DHT22;9266;51.132;17.062;2024-01-10T10:19:10;-7.80;1.00
18281;DHT22;9266;51.132;17.062;2024-01-10T10:21:38;-7.90;1.00
18281;DHT22;9266;51.132;17.062;2024-01-10T10:24:05;-8.00;1.00
18281;DHT22;9266;51.132;17.062;2024-01-10T10:26:36;-7.80;1.00
18281;DHT22;9266;51.132;17.062;2024-01-10T10:29:03;-7.60;1.00
18281;DHT22;9266;51.132;17.062;2024-01-10T10:31:31;-7.50;1.00
18281;DHT22;9266;51.132;17.062;2024-01-10T10:33:59;-7.50;1.00
18281;DHT22;9266;51.132;17.062;2024-01-10T10:36:28;-7.40;1.00
18281;DHT22;9266;51.132;17.062;2024-01-10T10:38:59;-7.30;1.00
18281;DHT22;9266;51.132;17.062;2024-01-10T10:41:30;-7.10;1.00
18281;DHT22;9266;51.132;17.062;2024-01-10T10:43:59;-7.10;1.00
18281;DHT22;9266;51.132;17.062;2024-01-10T10:46:27;-7.00;1.00
18281;DHT22;9266;51.132;17.062;2024-01-10T10:48:57;-7.00;1.00
18281;DHT22;9266;51.132;17.062;2024-01-10T10:51:33;-6.90;1.00
18281;DHT22;9266;51.132;17.062;2024-01-10T10:54:00;-6.90;1.00
18281;DHT22;9266;51.132;17.062;2024-01-10T10:56:29;-6.80;1.00
18281;DHT22;9266;51.132;17.062;2024-01-10T10:59:00;-6.70;1.00
18281;DHT22;9266;51.132;17.062;2024-01-10T11:01:27;-6.70;1.00
18281;DHT22;9266;51.132;17.062;2024-01-10T11:03:55;-6.70;1.00
18281;DHT22;9266;51.132;17.062;2024-01-10T11:06:23;-6.70;1.00
18281;DHT22;9266;51.132;17.062;2024-01-10T11:08:52;-6.80;1.00
18281;DHT22;9266;51.132;17.062;2024-01-10T11:11:30;-6.70;1.00
18281;DHT22;9266;51.132;17.062;2024-01-10T11:14:11;-6.60;1.00
18281;DHT22;9266;51.132;17.062;2024-01-10T11:17:07;-6.40;1.00
18281;DHT22;9266;51.132;17.062;2024-01-10T11:20:09;-6.50;1.00
18281;DHT22;9266;51.132;17.062;2024-01-10T11:22:48;-6.40;1.00
18281;DHT22;9266;51.132;17.062;2024-01-10T11:25:19;-6.40;1.00
18281;DHT22;9266;51.132;17.062;2024-01-10T11:27:52;-6.30;1.00
18281;DHT22;9266;51.132;17.062;2024-01-10T11:30:33;-4.90;1.00
18281;DHT22;9266;51.132;17.062;2024-01-10T11:33:01;-6.10;1.00
18281;DHT22;9266;51.132;17.062;2024-01-10T11:35:29;-6.10;1.00
18281;DHT22;9266;51.132;17.062;2024-01-10T11:38:00;-6.10;1.00
18281;DHT22;9266;51.132;17.062;2024-01-10T11:40:45;-6.10;1.00
18281;DHT22;9266;51.132;17.062;2024-01-10T11:43:13;-7.40;1.00
18281;DHT22;9266;51.132;17.062;2024-01-10T11:45:50;-6.00;1.00
18281;DHT22;9266;51.132;17.062;2024-01-10T11:48:25;-6.00;1.00
18281;DHT22;9266;51.132;17.062;2024-01-10T11:50:53;-5.90;1.00
18281;DHT22;9266;51.132;17.062;2024-01-10T11:53:38;-5.70;1.00
18281;DHT22;9266;51.132;17.062;2024-01-10T11:56:09;-5.80;1.00
18281;DHT22;9266;51.132;17.062;2024-01-10T11:58:52;-5.90;1.00
18281;DHT22;9266;51.132;17.062;2024-01-10T12:01:21;-5.80;1.00
18281;DHT22;9266;51.132;17.062;2024-01-10T12:03:51;-5.60;1.00
18281;DHT22;9266;51.132;17.062;2024-01-10T12:06:20;-5.50;1.00
18281;DHT22;9266;51.132;17.062;2024-01-10T12:08:48;-5.60;1.00
18281;DHT22;9266;51.132;17.062;2024-01-10T12:11:15;-5.50;1.00
18281;DHT22;9266;51.132;17.062;2024-01-10T12:13:42;-5.50;1.00
18281;DHT22;9266;51.132;17.062;2024-01-10T12:16:10;-5.30;1.00
18281;DHT22;9266;51.132;17.062;2024-01-10T12:18:39;-5.20;1.00
18281;DHT22;9266;51.132;17.062;2024-01-10T12:21:06;-5.10;1.00
18281;DHT22;9266;51.132;17.062;2024-01-10T12:23:36;-5.10;1.00
18281;DHT22;9266;51.132;17.062;2024-01-10T12:26:05;-5.00;1.00
18281;DHT22;9266;51.132;17.062;2024-01-10T12:28:33;-5.10;1.00
18281;DHT22;9266;51.132;17.062;2024-01-10T12:31:01;-5.20;1.00
18281;DHT22;9266;51.132;17.062;2024-01-10T12:33:28;-4.80;1.00
18281;DHT22;9266;51.132;17.062;2024-01-10T12:36:10;-4.90;1.00
18281;DHT22;9266;51.132;17.062;2024-01-10T12:38:38;-4.80;1.00
18281;DHT22;9266;51.132;17.062;2024-01-10T12:41:05;-4.80;1.00
18281;DHT22;9266;51.132;17.062;2024-01-10T12:43:35;-3.50;1.00
18281;DHT22;9266;51.132;17.062;2024-01-10T12:46:06;-4.70;1.00
18281;DHT22;9266;51.132;17.062;2024-01-10T12:48:33;-4.70;1.00
18281;DHT22;9266;51.132;17.062;2024-01-10T12:51:02;-4.60;1.00
18281;DHT22;9266;51.132;17.062;2024-01-10T12:53:33;-4.70;1.00
18281;DHT22;9266;51.132;17.062;2024-01-10T12:56:01;-4.70;1.00
18281;DHT22;9266;51.132;17.062;2024-01-10T12:58:29;-4.60;1.00
18281;DHT22;9266;51.132;17.062;2024-01-10T13:00:56;-4.80;1.00
18281;DHT22;9266;51.132;17.062;2024-01-10T13:03:23;-4.80;1.00
18281;DHT22;9266;51.132;17.062;2024-01-10T13:05:50;-4.70;1.00
18281;DHT22;9266;51.132;17.062;2024-01-10T13:08:17;-4.60;1.00
18281;DHT22;9266;51.132;17.062;2024-01-10T13:10:46;-4.50;1.00
18281;DHT22;9266;51.132;17.062;2024-01-10T13:13:14;-4.50;1.00
18281;DHT22;9266;51.132;17.062;2024-01-10T13:15:43;-4.50;1.00
18281;DHT22;9266;51.132;17.062;2024-01-10T13:18:11;-4.60;1.00
18281;DHT22;9266;51.132;17.062;2024-01-10T13:20:39;-4.70;1.00
18281;DHT22;9266;51.132;17.062;2024-01-10T13:23:06;-4.70;1.00
18281;DHT22;9266;51.132;17.062;2024-01-10T13:25:34;-4.50;1.00
18281;DHT22;9266;51.132;17.062;2024-01-10T13:28:04;-4.50;1.00
18281;DHT22;9266;51.132;17.062;2024-01-10T13:30:31;-4.50;1.00
18281;DHT22;9266;51.132;17.062;2024-01-10T13:32:58;-4.40;1.00
18281;DHT22;9266;51.132;17.062;2024-01-10T13:35:26;-4.40;1.00
18281;DHT22;9266;51.132;17.062;2024-01-10T13:37:53;-4.40;1.00
18281;DHT22;9266;51.132;17.062;2024-01-10T13:40:20;-4.40;1.00
18281;DHT22;9266;51.132;17.062;2024-01-10T13:42:49;-4.50;1.00
18281;DHT22;9266;51.132;17.062;2024-01-10T13:45:18;-4.50;1.00
18281;DHT22;9266;51.132;17.062;2024-01-10T13:47:46;-4.30;1.00
18281;DHT22;9266;51.132;17.062;2024-01-10T13:50:14;-4.40;1.00
18281;DHT22;9266;51.132;17.062;2024-01-10T13:52:41;-4.50;1.00
18281;DHT22;9266;51.132;17.062;2024-01-10T13:55:09;-4.50;1.00
18281;DHT22;9266;51.132;17.062;2024-01-10T13:57:36;-4.40;1.00
18281;DHT22;9266;51.132;17.062;2024-01-10T14:00:04;-4.40;1.00
18281;DHT22;9266;51.132;17.062;2024-01-10T14:02:34;-4.40;1.00
18281;DHT22;9266;51.132;17.062;2024-01-10T14:05:01;-4.50;1.00
18281;DHT22;9266;51.132;17.062;2024-01-10T14:07:31;-4.60;1.00
18281;DHT22;9266;51.132;17.062;2024-01-10T14:09:58;-4.60;1.00
18281;DHT22;9266;51.132;17.062;2024-01-10T14:12:27;-4.60;1.00
18281;DHT22;9266;51.132;17.062;2024-01-10T14:14:54;-4.60;1.00
18281;DHT22;9266;51.132;17.062;2024-01-10T14:17:21;-4.50;1.00
18281;DHT22;9266;51.132;17.062;2024-01-10T14:19:51;-4.50;1.00
18281;DHT22;9266;51.132;17.062;2024-01-10T14:22:18;-4.60;1.00
18281;DHT22;9266;51.132;17.062;2024-01-10T14:24:45;-4.70;1.00
18281;DHT22;9266;51.132;17.062;2024-01-10T14:27:12;-4.70;1.00
18281;DHT22;9266;51.132;17.062;2024-01-10T14:29:39;-4.60;1.00
18281;DHT22;9266;51.132;17.062;2024-01-10T14:32:06;-4.60;1.00
18281;DHT22;9266;51.132;17.062;2024-01-10T14:34:33;-4.70;1.00
18281;DHT22;9266;51.132;17.062;2024-01-10T14:37:01;-4.60;1.00
18281;DHT22;9266;51.132;17.062;2024-01-10T14:39:29;-4.70;1.00
18281;DHT22;9266;51.132;17.062;2024-01-10T14:41:56;-4.70;1.00
18281;DHT22;9266;51.132;17.062;2024-01-10T14:44:23;-4.70;1.00
18281;DHT22;9266;51.132;17.062;2024-01-10T14:46:50;-4.70;1.00
18281;DHT22;9266;51.132;17.062;2024-01-10T14:49:17;-4.80;1.00
18281;DHT22;9266;51.132;17.062;2024-01-10T14:51:44;-4.80;1.00
18281;DHT22;9266;51.132;17.062;2024-01-10T14:54:14;-4.90;1.00
18281;DHT22;9266;51.132;17.062;2024-01-10T14:56:41;-4.90;1.00
18281;DHT22;9266;51.132;17.062;2024-01-10T14:59:10;-4.90;1.00
18281;DHT22;9266;51.132;17.062;2024-01-10T15:01:37;-5.00;1.00
18281;DHT22;9266;51.132;17.062;2024-01-10T15:04:05;-5.20;1.00
18281;DHT22;9266;51.132;17.062;2024-01-10T15:06:31;-5.10;1.00
18281;DHT22;9266;51.132;17.062;2024-01-10T15:08:58;-5.10;1.00
18281;DHT22;9266;51.132;17.062;2024-01-10T15:11:27;-5.20;1.00
18281;DHT22;9266;51.132;17.062;2024-01-10T15:13:54;-5.30;1.00
18281;DHT22;9266;51.132;17.062;2024-01-10T15:16:22;-5.20;1.00
18281;DHT22;9266;51.132;17.062;2024-01-10T15:18:49;-5.30;1.00
18281;DHT22;9266;51.132;17.062;2024-01-10T15:21:17;-5.50;1.00
18281;DHT22;9266;51.132;17.062;2024-01-10T15:23:45;-5.40;1.00
18281;DHT22;9266;51.132;17.062;2024-01-10T15:26:15;-5.50;1.00
18281;DHT22;9266;51.132;17.062;2024-01-10T15:28:44;-5.60;1.00
18281;DHT22;9266;51.132;17.062;2024-01-10T15:31:14;-5.70;1.00
18281;DHT22;9266;51.132;17.062;2024-01-10T15:33:41;-5.80;1.00
18281;DHT22;9266;51.132;17.062;2024-01-10T15:36:08;-5.90;1.00
18281;DHT22;9266;51.132;17.062;2024-01-10T15:38:36;-5.90;1.00
18281;DHT22;9266;51.132;17.062;2024-01-10T15:41:05;-6.00;1.00